createdAt,value
2022-09-05T00:01:33.113Z,20.00
2022-09-05T00:04:26.378Z,20.10
2022-09-05T00:07:37.378Z,20.10
2022-09-05T00:10:20.628Z,20.00
2022-09-05T00:12:48.313Z,19.90
2022-09-05T00:15:29.255Z,19.80
2022-09-05T00:24:17.162Z,19.80
2022-09-05T00:24:24.771Z,19.80
2022-09-05T00:25:02.300Z,19.80
2022-09-05T00:27:50.895Z,19.80
2022-09-05T00:31:08.640Z,19.80
2022-09-05T00:33:32.529Z,19.80
2022-09-05T00:36:17.182Z,19.70
2022-09-05T00:38:58.102Z,19.80
2022-09-05T00:41:26.508Z,19.70
2022-09-05T00:43:56.941Z,19.60
2022-09-05T00:46:32.105Z,19.60
2022-09-05T00:49:27.162Z,19.70
2022-09-05T00:52:10.474Z,19.70
2022-09-05T00:54:43.283Z,19.60
2022-09-05T00:57:45.013Z,19.50
2022-09-05T01:00:24.886Z,19.50
2022-09-05T01:03:09.537Z,19.50
2022-09-05T01:05:42.466Z,19.50
2022-09-05T01:08:38.543Z,19.50
2022-09-05T01:11:11.142Z,19.50
2022-09-05T01:13:47.269Z,19.50
2022-09-05T01:16:23.461Z,19.50
2022-09-05T01:19:34.886Z,19.50
2022-09-05T01:22:25.851Z,19.50
2022-09-05T01:25:20.371Z,19.50
2022-09-05T01:29:14.500Z,19.50
2022-09-05T01:31:09.599Z,19.40
2022-09-05T01:33:59.875Z,19.40
2022-09-05T01:36:59.145Z,19.40
2022-09-05T01:40:12.374Z,19.40
2022-09-05T01:43:25.633Z,19.50
2022-09-05T01:46:18.495Z,19.40
2022-09-05T01:49:12.369Z,19.30
2022-09-05T01:51:52.800Z,19.40
2022-09-05T01:54:29.229Z,19.30
2022-09-05T01:57:30.297Z,19.30
2022-09-05T02:00:01.175Z,19.20
2022-09-05T02:02:51.648Z,19.20
2022-09-05T02:05:48.585Z,19.10
2022-09-05T02:08:16.239Z,19.10
2022-09-05T02:10:48.814Z,19.10
2022-09-05T02:13:35.087Z,19.10
2022-09-05T02:16:35.084Z,19.10
2022-09-05T02:19:12.079Z,19.10
2022-09-05T02:22:00.967Z,19.10
2022-09-05T02:24:37.480Z,19.10
2022-09-05T02:27:47.598Z,19.10
2022-09-05T02:30:09.885Z,19.10
2022-09-05T02:32:36.624Z,19.10
2022-09-05T02:35:33.083Z,19.10
2022-09-05T02:39:16.196Z,19.10
2022-09-05T02:45:17.332Z,19.10
2022-09-05T02:45:18.108Z,19.10
2022-09-05T02:47:16.415Z,19.00
2022-09-05T02:52:38.114Z,18.90
2022-09-05T02:57:26.825Z,18.90
2022-09-05T02:58:04.997Z,19.00
2022-09-05T02:59:09.462Z,19.00
2022-09-05T03:02:26.340Z,18.90
2022-09-05T03:05:13.557Z,18.90
2022-09-05T03:07:49.261Z,18.80
2022-09-05T03:10:54.561Z,18.80
2022-09-05T03:13:48.205Z,18.80
2022-09-05T03:16:46.999Z,18.70
2022-09-05T03:19:46.171Z,18.70
2022-09-05T03:22:37.182Z,18.70
2022-09-05T03:25:28.899Z,18.60
2022-09-05T03:28:31.772Z,18.70
2022-09-05T03:31:23.229Z,18.60
2022-09-05T03:33:53.040Z,18.60
2022-09-05T03:36:40.134Z,18.60
2022-09-05T03:39:55.391Z,18.60
2022-09-05T03:42:48.175Z,18.60
2022-09-05T03:45:36.404Z,18.60
2022-09-05T03:48:28.788Z,18.50
2022-09-05T03:57:14.134Z,18.50
2022-09-05T03:57:20.204Z,18.40
2022-09-05T03:57:42.632Z,18.60
2022-09-05T04:00:33.573Z,18.50
2022-09-05T04:07:06.320Z,18.40
2022-09-05T04:08:13.434Z,18.40
2022-09-05T04:09:13.200Z,18.20
2022-09-05T04:11:52.533Z,18.30
2022-09-05T04:14:49.571Z,18.40
2022-09-05T04:17:41.026Z,18.30
2022-09-05T04:20:13.959Z,18.40
2022-09-05T04:23:05.492Z,18.40
2022-09-05T04:25:44.910Z,18.30
2022-09-05T04:28:41.291Z,18.40
2022-09-05T04:31:34.378Z,18.30
2022-09-05T04:34:17.503Z,18.30
2022-09-05T04:36:45.718Z,18.30
2022-09-05T04:39:18.169Z,18.30
2022-09-05T04:41:59.201Z,18.30
2022-09-05T04:44:42.004Z,18.30
2022-09-05T04:47:19.935Z,18.30
2022-09-05T04:50:13.186Z,18.30
2022-09-05T04:52:43.111Z,18.30
2022-09-05T04:55:50.718Z,18.20
2022-09-05T04:59:49.983Z,18.10
2022-09-05T05:06:04.865Z,18.10
2022-09-05T05:06:15.298Z,18.10
2022-09-05T05:07:45.941Z,18.20
2022-09-05T05:12:27.480Z,18.20
2022-09-05T05:17:59.346Z,18.20
2022-09-05T05:18:15.781Z,18.20
2022-09-05T05:19:34.040Z,18.20
2022-09-05T05:22:03.867Z,18.20
2022-09-05T05:24:41.985Z,18.20
2022-09-05T05:27:19.000Z,18.20
2022-09-05T05:29:45.660Z,18.20
2022-09-05T05:32:45.036Z,18.10
2022-09-05T05:35:22.959Z,18.10
2022-09-05T05:38:12.518Z,18.20
2022-09-05T05:40:51.202Z,18.10
2022-09-05T05:43:25.880Z,18.20
2022-09-05T05:46:00.451Z,18.20
2022-09-05T05:48:33.335Z,18.30
2022-09-05T05:51:34.510Z,18.30
2022-09-05T05:54:32.779Z,18.30
2022-09-05T05:57:18.015Z,18.30
2022-09-05T05:59:56.815Z,18.40
2022-09-05T06:02:50.676Z,18.50
2022-09-05T06:06:09.711Z,18.50
2022-09-05T06:14:49.726Z,18.60
2022-09-05T06:15:00.914Z,18.60
2022-09-05T06:15:38.197Z,18.70
2022-09-05T06:18:43.841Z,18.80
2022-09-05T06:22:08.869Z,18.90
2022-09-05T06:25:15.471Z,19.00
2022-09-05T06:28:17.435Z,19.00
2022-09-05T06:31:30.658Z,19.10
2022-09-05T06:34:04.363Z,19.10
2022-09-05T06:36:43.984Z,19.20
2022-09-05T06:39:16.556Z,19.30
2022-09-05T06:42:33.343Z,19.40
2022-09-05T06:45:26.904Z,19.60
2022-09-05T06:48:44.679Z,19.80
2022-09-05T06:51:37.792Z,20.00
2022-09-05T06:54:39.995Z,20.30
2022-09-05T06:57:22.441Z,20.50
2022-09-05T07:00:10.344Z,20.70
2022-09-05T07:03:16.061Z,20.90
2022-09-05T07:06:05.578Z,21.10
2022-09-05T07:08:54.238Z,21.20
2022-09-05T07:11:25.046Z,21.40
2022-09-05T07:14:08.043Z,21.50
2022-09-05T07:16:50.883Z,21.50
2022-09-05T07:19:33.176Z,21.70
2022-09-05T07:22:47.306Z,21.70
2022-09-05T07:25:26.331Z,21.70
2022-09-05T07:28:26.866Z,21.90
2022-09-05T07:31:06.306Z,22.10
2022-09-05T07:33:37.022Z,22.30
2022-09-05T07:36:11.714Z,22.10
2022-09-05T07:38:52.063Z,22.10
2022-09-05T07:41:31.748Z,22.20
2022-09-05T07:44:08.358Z,22.50
2022-09-05T07:46:39.136Z,22.60
2022-09-05T07:49:07.727Z,22.60
2022-09-05T07:56:46.586Z,22.60
2022-09-05T07:57:08.834Z,22.70
2022-09-05T07:57:30.936Z,22.80
2022-09-05T08:00:26.412Z,22.80
2022-09-05T08:03:01.134Z,22.90
2022-09-05T08:05:37.425Z,23.10
2022-09-05T08:08:10.583Z,23.20
2022-09-05T08:11:24.613Z,23.30
2022-09-05T08:14:38.432Z,23.60
2022-09-05T08:16:48.039Z,23.80
2022-09-05T08:20:08.478Z,23.80
2022-09-05T08:22:52.192Z,23.90
2022-09-05T08:25:36.373Z,24.00
2022-09-05T08:28:33.396Z,24.20
2022-09-05T08:31:11.581Z,24.60
2022-09-05T08:33:39.859Z,24.80
2022-09-05T08:36:11.176Z,24.80
2022-09-05T08:38:41.227Z,25.00
2022-09-05T08:41:30.067Z,25.20
2022-09-05T08:46:39.338Z,25.00
2022-09-05T08:48:10.313Z,25.10
2022-09-05T08:50:55.683Z,25.50
2022-09-05T08:53:46.876Z,26.00
2022-09-05T08:56:21.177Z,26.20
2022-09-05T08:58:47.963Z,26.30
2022-09-05T09:01:31.514Z,26.40
2022-09-05T09:05:01.793Z,26.50
2022-09-05T09:07:50.913Z,26.70
2022-09-05T09:10:39.284Z,26.80
2022-09-05T09:13:08.915Z,26.90
2022-09-05T09:15:44.462Z,27.00
2022-09-05T09:18:21.404Z,27.30
2022-09-05T09:21:10.429Z,27.50
2022-09-05T09:23:43.282Z,27.60
2022-09-05T09:26:17.240Z,27.90
2022-09-05T09:28:51.380Z,28.00
2022-09-05T09:31:55.620Z,28.10
2022-09-05T09:34:29.461Z,27.70
2022-09-05T09:37:15.107Z,28.10
2022-09-05T09:40:00.434Z,27.60
2022-09-05T09:42:54.053Z,27.50
2022-09-05T09:45:32.011Z,27.60
2022-09-05T09:47:58.878Z,27.60
2022-09-05T09:50:45.097Z,27.70
2022-09-05T09:53:37.637Z,27.70
2022-09-05T09:56:41.817Z,28.20
2022-09-05T09:59:26.749Z,28.00
2022-09-05T10:05:18.277Z,28.00
2022-09-05T10:10:45.153Z,28.20
2022-09-05T10:10:58.571Z,28.30
2022-09-05T10:12:07.734Z,28.20
2022-09-05T10:15:00.863Z,28.20
2022-09-05T10:17:58.350Z,28.10
2022-09-05T10:20:44.586Z,28.30
2022-09-05T10:23:44.869Z,28.10
2022-09-05T10:26:42.545Z,28.00
2022-09-05T10:29:37.532Z,28.30
2022-09-05T10:35:04.671Z,28.10
2022-09-05T10:35:20.814Z,28.20
2022-09-05T10:38:14.574Z,28.30
2022-09-05T10:41:21.820Z,28.20
2022-09-05T10:43:39.354Z,28.30
2022-09-05T10:46:52.088Z,28.40
2022-09-05T10:49:30.406Z,28.50
2022-09-05T10:52:18.067Z,28.50
2022-09-05T10:55:17.326Z,28.60
2022-09-05T10:59:59.841Z,28.80
2022-09-05T11:02:23.221Z,28.60
2022-09-05T11:04:46.626Z,28.60
2022-09-05T11:07:41.751Z,28.70
2022-09-05T11:10:34.841Z,28.80
2022-09-05T11:13:43.280Z,29.00
2022-09-05T11:16:15.618Z,29.20
2022-09-05T11:18:57.431Z,29.40
2022-09-05T11:22:03.916Z,29.40
2022-09-05T11:25:00.868Z,29.40
2022-09-05T11:27:47.265Z,29.50
2022-09-05T11:30:29.300Z,29.40
2022-09-05T11:39:35.157Z,29.60
2022-09-05T11:40:06.815Z,30.10
2022-09-05T11:40:26.567Z,30.00
2022-09-05T11:43:07.537Z,30.40
2022-09-05T11:46:12.946Z,30.20
2022-09-05T11:49:13.926Z,30.60
2022-09-05T11:52:03.630Z,30.60
2022-09-05T11:54:48.342Z,30.50
2022-09-05T11:57:32.242Z,30.70
2022-09-05T12:00:32.042Z,31.10
2022-09-05T12:03:59.156Z,31.00
2022-09-05T12:06:48.213Z,31.30
2022-09-05T12:09:33.097Z,31.50
2022-09-05T12:12:41.645Z,31.20
2022-09-05T12:15:35.218Z,30.50
2022-09-05T12:18:29.900Z,30.20
2022-09-05T12:21:19.849Z,30.10
2022-09-05T12:24:07.846Z,30.70
2022-09-05T12:27:42.629Z,30.90
2022-09-05T12:29:35.525Z,31.00
2022-09-05T12:33:09.741Z,31.40
2022-09-05T12:36:12.758Z,31.40
2022-09-05T12:40:57.774Z,31.60
2022-09-05T12:41:44.041Z,31.80
2022-09-05T12:44:40.995Z,31.70
2022-09-05T12:47:16.988Z,32.00
2022-09-05T12:50:15.439Z,31.80
2022-09-05T12:53:01.875Z,31.90
2022-09-05T12:55:42.467Z,31.80
2022-09-05T13:02:58.748Z,32.10
2022-09-05T13:03:14.369Z,32.20
2022-09-05T13:04:31.286Z,32.20
2022-09-05T13:07:09.716Z,32.70
2022-09-05T13:12:30.642Z,33.20
2022-09-05T13:14:55.450Z,32.90
2022-09-05T13:15:26.912Z,32.90
2022-09-05T13:18:10.156Z,33.30
2022-09-05T13:20:50.219Z,33.80
2022-09-05T13:23:16.933Z,33.20
2022-09-05T13:25:50.549Z,33.60
2022-09-05T13:28:19.973Z,33.40
2022-09-05T13:37:54.078Z,32.90
2022-09-05T13:38:10.027Z,32.30
2022-09-05T13:38:21.302Z,33.10
2022-09-05T13:39:57.163Z,33.40
2022-09-05T13:42:28.589Z,34.50
2022-09-05T13:45:01.154Z,33.80
2022-09-05T13:47:36.821Z,32.90
2022-09-05T13:50:17.375Z,32.70
2022-09-05T13:52:53.153Z,32.20
2022-09-05T13:55:42.418Z,32.20
2022-09-05T13:58:41.566Z,32.10
2022-09-05T14:01:31.057Z,31.80
2022-09-05T14:07:51.833Z,31.80
2022-09-05T14:10:28.450Z,31.70
2022-09-05T14:13:06.628Z,31.50
2022-09-05T14:15:42.810Z,31.50
2022-09-05T14:18:21.558Z,31.60
2022-09-05T14:21:16.815Z,31.50
2022-09-05T14:24:10.909Z,31.20
2022-09-05T14:26:39.146Z,31.00
2022-09-05T14:29:19.085Z,30.90
2022-09-05T14:37:40.626Z,30.70
2022-09-05T14:37:46.223Z,30.80
2022-09-05T14:38:38.718Z,30.70
2022-09-05T14:41:33.087Z,30.90
2022-09-05T14:44:33.282Z,31.00
2022-09-05T14:47:37.794Z,30.80
2022-09-05T14:50:17.915Z,30.80
2022-09-05T14:57:10.208Z,31.10
2022-09-05T15:02:48.564Z,31.10
2022-09-05T15:02:57.122Z,31.30
2022-09-05T15:04:42.440Z,31.00
2022-09-05T15:07:28.367Z,30.90
2022-09-05T15:12:16.354Z,31.00
2022-09-05T15:13:00.936Z,30.90
2022-09-05T15:16:01.957Z,30.60
2022-09-05T15:18:39.182Z,30.60
2022-09-05T15:21:33.728Z,30.40
2022-09-05T15:24:25.033Z,30.40
2022-09-05T15:27:00.465Z,30.30
2022-09-05T15:29:34.306Z,30.40
2022-09-05T15:32:14.887Z,30.40
2022-09-05T15:34:41.663Z,30.40
2022-09-05T15:37:40.714Z,30.40
2022-09-05T15:40:24.097Z,30.40
2022-09-05T15:42:53.145Z,30.40
2022-09-05T15:45:31.133Z,30.30
2022-09-05T15:48:15.245Z,30.20
2022-09-05T15:50:52.608Z,30.30
2022-09-05T15:53:36.842Z,30.20
2022-09-05T15:56:20.662Z,30.20
2022-09-05T15:58:55.975Z,30.10
2022-09-05T16:01:58.293Z,30.00
2022-09-05T16:10:18.177Z,30.00
2022-09-05T16:10:33.927Z,30.00
2022-09-05T16:10:42.032Z,30.00
2022-09-05T16:12:48.411Z,29.90
2022-09-05T16:21:09.600Z,29.70
2022-09-05T16:23:28.887Z,29.70
2022-09-05T16:23:30.267Z,29.70
2022-09-05T16:24:29.932Z,29.70
2022-09-05T16:27:14.032Z,29.60
2022-09-05T16:29:46.328Z,29.50
2022-09-05T16:32:26.851Z,29.40
2022-09-05T16:35:24.954Z,29.40
2022-09-05T16:38:48.494Z,29.30
2022-09-05T16:41:27.995Z,29.20
2022-09-05T16:44:10.876Z,29.20
2022-09-05T16:46:45.772Z,29.10
2022-09-05T16:49:15.303Z,29.10
2022-09-05T16:51:45.923Z,29.10
2022-09-05T16:54:36.238Z,29.10
2022-09-05T16:57:15.756Z,29.00
2022-09-05T16:59:45.243Z,29.00
2022-09-05T17:02:40.336Z,28.90
2022-09-05T17:05:31.376Z,28.90
2022-09-05T17:08:21.671Z,28.90
2022-09-05T17:10:57.969Z,28.80
2022-09-05T17:13:37.152Z,28.80
2022-09-05T17:16:05.658Z,28.70
2022-09-05T17:18:35.226Z,28.60
2022-09-05T17:21:08.839Z,28.60
2022-09-05T17:29:16.319Z,28.60
2022-09-05T17:29:33.771Z,28.50
2022-09-05T17:32:44.079Z,28.20
2022-09-05T17:35:20.288Z,28.20
2022-09-05T17:38:11.572Z,28.30
2022-09-05T17:40:50.868Z,28.10
2022-09-05T17:43:35.552Z,28.00
2022-09-05T17:46:22.090Z,28.10
2022-09-05T17:48:49.322Z,28.10
2022-09-05T17:51:36.004Z,28.00
2022-09-05T17:54:08.263Z,27.90
2022-09-05T17:56:42.994Z,27.90
2022-09-05T17:59:19.284Z,27.90
2022-09-05T18:02:04.881Z,27.90
2022-09-05T18:04:44.970Z,27.80
2022-09-05T18:07:43.455Z,27.70
2022-09-05T18:10:15.653Z,27.50
2022-09-05T18:13:13.121Z,27.40
2022-09-05T18:15:40.822Z,27.20
2022-09-05T18:18:58.900Z,26.90
2022-09-05T18:21:22.242Z,26.30
2022-09-05T18:24:04.325Z,25.70
2022-09-05T18:26:40.759Z,25.40
2022-09-05T18:29:57.367Z,25.40
2022-09-05T18:32:21.608Z,25.20
2022-09-05T18:35:36.137Z,24.90
2022-09-05T18:38:04.232Z,24.50
2022-09-05T18:40:55.498Z,24.00
2022-09-05T18:43:39.054Z,24.00
2022-09-05T18:46:26.449Z,24.10
2022-09-05T18:50:21.425Z,24.00
2022-09-05T18:52:16.864Z,23.10
2022-09-05T18:56:10.699Z,22.70
2022-09-05T18:57:57.860Z,22.70
2022-09-05T19:00:44.576Z,22.40
2022-09-05T19:03:27.025Z,22.40
2022-09-05T19:06:36.249Z,22.40
2022-09-05T19:09:07.318Z,22.10
2022-09-05T19:11:53.364Z,22.20
2022-09-05T19:14:50.009Z,22.40
2022-09-05T19:17:24.783Z,22.60
2022-09-05T19:20:32.461Z,22.60
2022-09-05T19:23:11.836Z,22.70
2022-09-05T19:25:44.863Z,22.70
2022-09-05T19:36:51.074Z,22.70
2022-09-05T19:36:55.952Z,22.70
2022-09-05T19:37:07.201Z,22.70
2022-09-05T19:37:30.098Z,22.80
2022-09-05T19:41:58.820Z,23.20
2022-09-05T19:47:34.263Z,23.90
2022-09-05T19:47:56.107Z,24.00
2022-09-05T19:48:30.868Z,24.30
2022-09-05T19:51:26.759Z,24.40
2022-09-05T19:54:04.429Z,24.30
2022-09-05T19:56:33.629Z,24.10
2022-09-05T19:59:00.486Z,24.10
2022-09-05T20:01:28.074Z,24.10
2022-09-05T20:03:55.811Z,24.10
2022-09-05T20:06:30.989Z,23.80
2022-09-05T20:09:24.798Z,23.80
2022-09-05T20:11:58.812Z,23.80
2022-09-05T20:14:30.689Z,23.90
2022-09-05T20:17:24.169Z,23.80
2022-09-05T20:20:11.528Z,23.80
2022-09-05T20:22:47.753Z,23.70
2022-09-05T20:25:36.664Z,23.70
2022-09-05T20:28:13.717Z,23.60
2022-09-05T20:30:44.493Z,23.70
2022-09-05T20:33:23.136Z,23.70
2022-09-05T20:43:15.326Z,23.70
2022-09-05T20:43:17.745Z,23.60
2022-09-05T20:43:18.672Z,23.70
2022-09-05T20:44:48.494Z,23.70
2022-09-05T20:51:23.574Z,23.00
2022-09-05T20:54:16.031Z,22.10
2022-09-05T20:54:18.233Z,21.60
2022-09-05T20:56:05.687Z,21.70
2022-09-05T20:58:34.303Z,21.80
2022-09-05T21:01:21.673Z,21.80
2022-09-05T21:04:02.544Z,21.50
2022-09-05T21:06:37.428Z,21.30
2022-09-05T21:09:29.257Z,21.00
2022-09-05T21:11:58.798Z,20.80
2022-09-05T21:14:28.579Z,20.60
2022-09-05T21:17:08.276Z,20.50
2022-09-05T21:19:46.647Z,20.40
2022-09-05T21:22:25.049Z,20.30
2022-09-05T21:25:43.594Z,20.10
2022-09-05T21:28:24.374Z,20.30
2022-09-05T21:31:15.807Z,20.30
2022-09-05T21:33:45.490Z,20.40
2022-09-05T21:36:14.929Z,20.40
2022-09-05T21:38:43.249Z,20.30
2022-09-05T21:41:10.732Z,20.50
2022-09-05T21:47:40.213Z,20.60
2022-09-05T21:47:44.595Z,20.50
2022-09-05T21:49:23.374Z,20.50
2022-09-05T21:51:51.015Z,20.40
2022-09-05T21:59:14.485Z,20.40
2022-09-05T21:59:24.724Z,20.40
2022-09-05T22:00:10.941Z,20.40
2022-09-05T22:02:38.387Z,20.50
2022-09-05T22:05:05.699Z,20.60
2022-09-05T22:07:35.785Z,20.60
2022-09-05T22:10:04.631Z,20.70
2022-09-05T22:12:35.840Z,20.70
2022-09-05T22:15:26.510Z,20.70
2022-09-05T22:17:54.299Z,20.80
2022-09-05T22:20:27.919Z,20.80
2022-09-05T22:22:56.546Z,20.60
2022-09-05T22:25:29.400Z,20.60
2022-09-05T22:28:13.652Z,20.40
2022-09-05T22:30:40.475Z,20.30
2022-09-05T22:33:07.965Z,20.20
2022-09-05T22:35:37.246Z,20.10
2022-09-05T22:38:11.842Z,20.10
2022-09-05T22:40:41.345Z,20.00
2022-09-05T22:43:09.945Z,20.00
2022-09-05T22:45:39.212Z,20.00
2022-09-05T22:48:08.673Z,20.00
2022-09-05T22:50:35.935Z,20.10
2022-09-05T22:53:06.758Z,20.00
2022-09-05T22:55:38.698Z,20.00
2022-09-05T22:58:08.146Z,19.90
2022-09-05T23:00:35.655Z,20.00
2022-09-05T23:03:04.983Z,20.00
2022-09-05T23:05:32.831Z,19.80
2022-09-05T23:08:01.790Z,19.90
2022-09-05T23:10:30.197Z,20.00
2022-09-05T23:12:57.709Z,20.00
2022-09-05T23:15:25.512Z,20.10
2022-09-05T23:17:56.850Z,20.10
2022-09-05T23:20:24.757Z,19.70
2022-09-05T23:22:51.608Z,19.50
2022-09-05T23:25:19.200Z,19.50
2022-09-05T23:27:46.381Z,19.80
2022-09-05T23:30:13.879Z,19.90
2022-09-05T23:32:45.413Z,19.80
2022-09-05T23:35:12.919Z,19.80
2022-09-05T23:37:43.989Z,19.80
2022-09-05T23:40:13.616Z,19.80
2022-09-05T23:42:41.374Z,19.90
2022-09-05T23:45:09.314Z,19.90
2022-09-05T23:47:36.785Z,19.80
2022-09-05T23:50:04.753Z,19.70
2022-09-05T23:52:31.614Z,19.80
2022-09-05T23:54:58.666Z,19.90
2022-09-05T23:57:25.999Z,19.60
2022-09-05T23:59:53.020Z,19.70
